Time;durP1;ratioP1;P1;durP2;ratioP2;P2;SDS_P1;SDS_P2;PMS_P1;PMS_P2;Temp;Humidity;BMP_temperature;BMP_pressure;BME280_temperature;BME280_humidity;BME280_pressure;Samples;Min_cycle;Max_cycle;Signal;HPM_P1;HPM_P2
2022/08/02 00:00:17;;;;;;;;;;;;;;;21.35;88.38;99765.47;3045257;19;1025;-53
2022/08/02 00:01:21;;;;;;;;;;;;;;;21.35;88.27;99763.59;3044690;19;1148;-56
2022/08/02 00:02:23;;;;;;;;;;;;;;;21.39;88.57;99764.06;3047771;19;964;-55
2022/08/02 00:03:27;;;;;;;;;;;;;;;21.40;88.59;99760.31;3047988;19;1333;-52
2022/08/02 00:04:32;;;;;;;;;;;;;;;21.40;88.68;99766.59;3047632;19;1333;-54
2022/08/02 00:05:37;;;;;;;;;;;;;;;21.42;88.72;99764.53;3048951;19;1818;-52
2022/08/02 00:06:40;;;;;;;;;;;;;;;21.42;88.71;99769.13;3053278;19;1140;-52
2022/08/02 00:07:45;;;;;;;;;;;;;;;21.41;88.86;99767.44;3052220;19;1674;-54
2022/08/02 00:08:47;;;;;;;;;;;;;;;21.41;88.85;99765.56;3052434;19;968;-54
2022/08/02 00:09:51;;;;;;;;;;;;;;;21.40;88.86;99765.75;3053009;19;1713;-53
2022/08/02 00:10:53;;;;;;;;;;;;;;;21.42;88.96;99769.13;3053228;19;997;-57
2022/08/02 00:11:58;;;;;;;;;;;;;;;21.42;88.96;99763.69;3052790;19;1043;-53
2022/08/02 00:13:00;;;;;;;;;;;;;;;21.42;88.98;99769.13;3053403;19;960;-53
2022/08/02 00:14:04;;;;;;;;;;;;;;;21.42;89.00;99774.56;3053022;19;1678;-55
2022/08/02 00:15:07;;;;;;;;;;;;;;;21.39;89.21;99770.31;3052825;19;889;-54
2022/08/02 00:16:11;;;;;;;;;;;;;;;21.37;89.40;99771.56;3053324;19;1361;-55
2022/08/02 00:17:17;;;;;;;;;;;;;;;21.36;89.39;99764.44;3052559;19;1155;-53
2022/08/02 00:18:22;;;;;;;;;;;;;;;21.33;89.58;99759.38;3052771;19;1666;-54
2022/08/02 00:19:24;;;;;;;;;;;;;;;21.30;89.59;99759.72;3053135;19;1701;-55
2022/08/02 00:20:29;;;;;;;;;;;;;;;21.25;90.11;99757.56;3051362;19;944;-52
2022/08/02 00:21:31;;;;;;;;;;;;;;;21.22;90.17;99757.06;3045272;19;806;-53
2022/08/02 00:22:35;;;;;;;;;;;;;;;21.17;90.06;99755.69;3045196;19;1143;-55
2022/08/02 00:23:37;;;;;;;;;;;;;;;21.14;90.37;99757.91;3045018;19;1736;-52
2022/08/02 00:25:02;;;;;;;;;;;;;;;21.06;90.51;99764.25;3046891;19;1129;-53
2022/08/02 00:26:04;;;;;;;;;;;;;;;21.03;90.53;99764.59;3047802;19;1877;-51
2022/08/02 00:27:09;;;;;;;;;;;;;;;20.99;90.57;99768.72;3048145;19;1060;-54
2022/08/02 00:28:11;;;;;;;;;;;;;;;20.92;91.05;99767.72;3050576;19;1334;-52
2022/08/02 00:29:15;;;;;;;;;;;;;;;20.87;91.25;99770.16;3052825;19;920;-54
2022/08/02 00:30:17;;;;;;;;;;;;;;;20.82;91.19;99769.81;3053426;19;1053;-53
2022/08/02 00:31:22;;;;;;;;;;;;;;;20.78;91.40;99771.19;3052019;19;928;-52
2022/08/02 00:32:23;;;;;;;;;;;;;;;20.74;91.48;99770.72;3052007;19;1208;-54
2022/08/02 00:33:28;;;;;;;;;;;;;;;20.73;91.43;99774.47;3052468;19;1169;-52
2022/08/02 00:34:52;;;;;;;;;;;;;;;20.72;91.29;99766.50;3053130;19;1060;-55
2022/08/02 00:35:54;;;;;;;;;;;;;;;20.71;91.37;99770.22;3052863;19;1750;-54
2022/08/02 00:36:59;;;;;;;;;;;;;;;20.70;91.28;99776.66;3052610;19;978;-55
2022/08/02 00:38:01;;;;;;;;;;;;;;;20.69;91.25;99777.69;3053040;19;1008;-56
2022/08/02 00:39:06;;;;;;;;;;;;;;;20.70;91.26;99776.66;3052985;19;1112;-54
2022/08/02 00:40:30;;;;;;;;;;;;;;;20.68;91.44;99781.41;3053436;19;1419;-54
2022/08/02 00:41:32;;;;;;;;;;;;;;;20.68;91.35;99776.00;3054781;19;991;-54
2022/08/02 00:42:36;;;;;;;;;;;;;;;20.66;91.13;99776.16;3055647;19;1651;-52
2022/08/02 00:43:38;;;;;;;;;;;;;;;20.67;91.12;99790.56;3049155;19;1090;-54
2022/08/02 00:44:43;;;;;;;;;;;;;;;20.66;91.33;99791.59;3047171;19;1319;-52
2022/08/02 00:45:45;;;;;;;;;;;;;;;20.63;91.56;99794.69;3047586;19;1076;-54
2022/08/02 00:47:07;;;;;;;;;;;;;;;20.59;91.70;99794.16;3050107;19;921;-51
2022/08/02 00:48:09;;;;;;;;;;;;;;;20.57;91.77;99793.50;3050142;19;1119;-54
2022/08/02 00:49:14;;;;;;;;;;;;;;;20.54;91.70;99795.69;3050607;19;1050;-54
2022/08/02 00:50:17;;;;;;;;;;;;;;;20.49;91.79;99791.69;3050955;19;885;-55
2022/08/02 00:51:21;;;;;;;;;;;;;;;20.42;91.93;99796.09;3055797;19;920;-54
2022/08/02 00:52:23;;;;;;;;;;;;;;;20.46;91.91;99800.16;3056684;19;861;-55
2022/08/02 00:53:28;;;;;;;;;;;;;;;20.43;91.95;99795.06;3055808;19;1031;-56
2022/08/02 00:54:29;;;;;;;;;;;;;;;20.41;92.22;99794.41;3054136;19;977;-55
2022/08/02 00:55:34;;;;;;;;;;;;;;;20.38;92.18;99802.91;3054764;19;991;-55
2022/08/02 00:56:36;;;;;;;;;;;;;;;20.34;92.22;99796.09;3055871;19;962;-54
2022/08/02 00:57:40;;;;;;;;;;;;;;;20.29;92.40;99795.75;3056237;19;995;-53
2022/08/02 00:58:42;;;;;;;;;;;;;;;20.27;92.53;99795.09;3055442;19;1047;-53
2022/08/02 00:59:47;;;;;;;;;;;;;;;20.24;92.73;99795.44;3055976;19;869;-53
2022/08/02 01:00:49;;;;;;;;;;;;;;;20.21;92.90;99803.06;3055656;19;1361;-54
2022/08/02 01:01:54;;;;;;;;;;;;;;;20.19;93.03;99796.97;3054910;19;1019;-51
2022/08/02 01:02:59;;;;;;;;;;;;;;;20.13;92.94;99788.53;3055894;19;944;-54
2022/08/02 01:04:03;;;;;;;;;;;;;;;20.13;92.92;99795.81;3056013;19;1182;-53
2022/08/02 01:05:08;;;;;;;;;;;;;;;20.13;93.03;99793.94;3055950;19;977;-54
2022/08/02 01:06:12;;;;;;;;;;;;;;;20.07;93.08;99800.03;3048538;19;1023;-51
2022/08/02 01:07:14;;;;;;;;;;;;;;;20.09;92.68;99783.63;3046215;19;1858;-54
2022/08/02 01:08:19;;;;;;;;;;;;;;;20.09;92.71;99805.28;3047175;19;973;-54
2022/08/02 01:09:30;;;;;;;;;;;;;;;20.13;92.62;99806.66;3050037;19;979;-52
2022/08/02 01:10:35;;;;;;;;;;;;;;;20.16;92.44;99797.34;3050511;19;930;-54
2022/08/02 01:11:36;;;;;;;;;;;;;;;20.18;91.72;99800.69;3050240;19;944;-52
2022/08/02 01:12:41;;;;;;;;;;;;;;;20.18;91.31;99790.69;3050476;19;1662;-55
2022/08/02 01:13:43;;;;;;;;;;;;;;;20.23;91.06;99796.47;3056008;19;949;-54
2022/08/02 01:14:57;;;;;;;;;;;;;;;20.26;90.94;99801.53;3054751;19;1021;-53
2022/08/02 01:16:16;;;;;;;;;;;;;;;20.28;90.86;99802.22;3054413;19;1003;-53
2022/08/02 01:17:28;;;;;;;;;;;;;;;20.31;90.66;99795.59;3054445;19;862;-52
2022/08/02 01:18:44;;;;;;;;;;;;;;;20.34;90.55;99796.09;3055185;19;1087;-53
2022/08/02 01:19:48;;;;;;;;;;;;;;;20.37;90.69;99790.38;3055819;19;950;-51
2022/08/02 01:20:56;;;;;;;;;;;;;;;20.38;90.68;99792.06;3054708;19;948;-55
2022/08/02 01:22:16;;;;;;;;;;;;;;;20.40;90.60;99790.03;3056910;19;939;-53
2022/08/02 01:23:38;;;;;;;;;;;;;;;20.43;90.56;99795.06;3055245;19;994;-54
2022/08/02 01:24:59;;;;;;;;;;;;;;;20.44;90.49;99794.06;3056248;19;873;-52
2022/08/02 01:26:10;;;;;;;;;;;;;;;20.47;90.38;99798.28;3055523;19;962;-50
2022/08/02 01:27:12;;;;;;;;;;;;;;;20.46;90.48;99802.84;3054878;19;1811;-52
2022/08/02 01:28:35;;;;;;;;;;;;;;;20.49;90.33;99804.38;3051346;19;1051;-53
2022/08/02 01:29:38;;;;;;;;;;;;;;;20.49;90.46;99793.53;3047563;19;895;-53
2022/08/02 01:30:43;;;;;;;;;;;;;;;20.46;90.54;99794.72;3046477;19;964;-53
2022/08/02 01:31:45;;;;;;;;;;;;;;;20.50;90.44;99795.22;3047943;19;1142;-53
2022/08/02 01:32:51;;;;;;;;;;;;;;;20.49;90.51;99794.38;3048663;19;1172;-54
2022/08/02 01:34:02;;;;;;;;;;;;;;;20.52;90.55;99808.63;3049554;19;1014;-51
2022/08/02 01:35:17;;;;;;;;;;;;;;;20.51;90.63;99805.06;3048621;19;1075;-53
2022/08/02 01:36:20;;;;;;;;;;;;;;;20.49;90.76;99802.50;3054532;19;1163;-54
2022/08/02 01:37:37;;;;;;;;;;;;;;;20.48;90.97;99802.69;3054700;19;1046;-52
2022/08/02 01:38:39;;;;;;;;;;;;;;;20.44;91.17;99802.19;3055477;19;1100;-54
2022/08/02 01:39:44;;;;;;;;;;;;;;;20.44;91.34;99812.19;3054704;19;1201;-54
2022/08/02 01:40:46;;;;;;;;;;;;;;;20.40;91.37;99800.00;3053821;19;1079;-54
2022/08/02 01:41:50;;;;;;;;;;;;;;;20.38;91.30;99805.59;3054527;19;999;-53
2022/08/02 01:42:59;;;;;;;;;;;;;;;20.35;91.46;99803.22;3054339;19;1204;-52
2022/08/02 01:44:03;;;;;;;;;;;;;;;20.32;91.62;99803.53;3053448;19;896;-54
2022/08/02 01:45:05;;;;;;;;;;;;;;;20.31;91.73;99807.28;3054203;19;1055;-55
2022/08/02 01:46:10;;;;;;;;;;;;;;;20.27;91.77;99805.94;3054057;19;936;-52
2022/08/02 01:47:16;;;;;;;;;;;;;;;20.26;91.84;99806.97;3053876;19;1832;-53
2022/08/02 01:48:21;;;;;;;;;;;;;;;20.22;91.99;99808.31;3054864;19;1018;-51
2022/08/02 01:49:23;;;;;;;;;;;;;;;20.19;92.05;99814.06;3054442;19;1254;-53
2022/08/02 01:50:28;;;;;;;;;;;;;;;20.18;92.53;99815.09;3052383;19;884;-52
2022/08/02 01:52:51;;;;;;;;;;;;;;;20.11;93.28;99806.81;3046384;19;1365;-54
2022/08/02 01:53:54;;;;;;;;;;;;;;;20.08;93.50;99817.16;3048098;19;1177;-54
2022/08/02 01:55:01;;;;;;;;;;;;;;;20.05;93.75;99828.31;3051712;19;1051;-51
2022/08/02 01:56:03;;;;;;;;;;;;;;;20.00;93.85;99825.28;3050349;19;1015;-50
2022/08/02 01:57:08;;;;;;;;;;;;;;;19.98;93.88;99821.91;3049442;19;1244;-54
2022/08/02 01:58:13;;;;;;;;;;;;;;;19.96;94.08;99826.63;3051764;19;961;-53
2022/08/02 01:59:19;;;;;;;;;;;;;;;19.92;94.21;99826.16;3057004;19;1635;-54
2022/08/02 02:00:24;;;;;;;;;;;;;;;19.89;94.23;99823.78;3054663;19;1149;-54
2022/08/02 02:01:26;;;;;;;;;;;;;;;19.87;94.21;99824.97;3058350;19;952;-51
2022/08/02 02:02:30;;;;;;;;;;;;;;;19.83;94.35;99821.72;3057345;19;1708;-52
2022/08/02 02:03:32;;;;;;;;;;;;;;;19.80;94.42;99823.97;3055021;19;1027;-52
2022/08/02 02:04:37;;;;;;;;;;;;;;;19.78;94.38;99821.41;3055623;19;988;-53
2022/08/02 02:05:39;;;;;;;;;;;;;;;19.75;94.47;99825.31;3054371;19;954;-51
2022/08/02 02:06:44;;;;;;;;;;;;;;;19.73;94.46;99827.34;3054009;19;1193;-53
2022/08/02 02:07:48;;;;;;;;;;;;;;;19.71;94.52;99834.78;3054560;19;1877;-53
2022/08/02 02:08:53;;;;;;;;;;;;;;;19.67;94.74;99830.72;3055973;19;929;-51
2022/08/02 02:09:55;;;;;;;;;;;;;;;19.68;94.73;99831.56;3054435;19;1166;-51
2022/08/02 02:10:59;;;;;;;;;;;;;;;19.66;94.65;99829.03;3055095;19;979;-53
2022/08/02 02:12:21;;;;;;;;;;;;;;;19.64;94.36;99825.66;3054781;19;982;-53
2022/08/02 02:13:26;;;;;;;;;;;;;;;19.63;94.48;99826.66;3049574;19;933;-52
2022/08/02 02:14:34;;;;;;;;;;;;;;;19.63;94.34;99829.38;3046768;19;930;-53
2022/08/02 02:15:41;;;;;;;;;;;;;;;19.64;93.97;99820.22;3046319;19;980;-53
2022/08/02 02:16:43;;;;;;;;;;;;;;;19.65;93.81;99827.34;3048245;19;1154;-52
2022/08/02 02:17:48;;;;;;;;;;;;;;;19.66;93.75;99823.63;3048307;19;1767;-53
2022/08/02 02:19:10;;;;;;;;;;;;;;;19.69;93.61;99820.56;3049270;19;1003;-51
2022/08/02 02:20:15;;;;;;;;;;;;;;;19.71;93.72;99821.22;3049097;19;1380;-53
2022/08/02 02:21:17;;;;;;;;;;;;;;;19.72;93.58;99820.22;3054414;19;1675;-53
2022/08/02 02:22:21;;;;;;;;;;;;;;;19.73;93.63;99827.34;3054490;19;1413;-54
2022/08/02 02:23:26;;;;;;;;;;;;;;;19.75;93.64;99819.88;3054822;19;1233;-51
2022/08/02 02:24:36;;;;;;;;;;;;;;;19.73;93.82;99821.91;3053972;19;1304;-50
2022/08/02 02:25:39;;;;;;;;;;;;;;;19.74;93.85;99826.31;3053378;19;1032;-53
2022/08/02 02:26:50;;;;;;;;;;;;;;;19.73;93.80;99819.22;3054176;19;900;-52
2022/08/02 02:27:54;;;;;;;;;;;;;;;19.72;93.93;99817.50;3052946;19;1842;-54
2022/08/02 02:28:59;;;;;;;;;;;;;;;19.71;93.89;99823.94;3053425;19;952;-53
2022/08/02 02:30:01;;;;;;;;;;;;;;;19.69;94.13;99820.56;3053198;19;1135;-54
2022/08/02 02:31:10;;;;;;;;;;;;;;;19.66;94.18;99820.91;3053902;19;1021;-51
2022/08/02 02:32:12;;;;;;;;;;;;;;;19.62;94.20;99827.66;3054784;19;1072;-52
2022/08/02 02:33:19;;;;;;;;;;;;;;;19.62;94.54;99822.25;3054799;19;974;-52
2022/08/02 02:34:27;;;;;;;;;;;;;;;19.58;94.72;99828.16;3054595;19;1094;-53
2022/08/02 02:35:32;;;;;;;;;;;;;;;19.56;94.71;99817.50;3051976;19;1812;-53
2022/08/02 02:36:35;;;;;;;;;;;;;;;19.54;94.88;99830.38;3046063;19;1022;-52
2022/08/02 02:37:39;;;;;;;;;;;;;;;19.53;94.88;99828.69;3045005;19;989;-52
2022/08/02 02:38:41;;;;;;;;;;;;;;;19.51;95.16;99825.28;3045619;19;961;-53
2022/08/02 02:39:45;;;;;;;;;;;;;;;19.51;95.12;99844.25;3047909;19;1132;-50
2022/08/02 02:40:47;;;;;;;;;;;;;;;19.50;94.96;99829.00;3048277;19;877;-50
2022/08/02 02:41:51;;;;;;;;;;;;;;;19.49;95.12;99821.91;3048223;19;1372;-50
2022/08/02 02:42:54;;;;;;;;;;;;;;;19.48;95.21;99828.28;3048909;19;1349;-52
2022/08/02 02:44:00;;;;;;;;;;;;;;;19.48;95.19;99820.19;3053405;19;1950;-52
2022/08/02 02:45:07;;;;;;;;;;;;;;;19.50;95.19;99823.59;3052794;19;1058;-53
2022/08/02 02:46:09;;;;;;;;;;;;;;;19.49;95.32;99816.50;3053259;19;964;-51
2022/08/02 02:47:14;;;;;;;;;;;;;;;19.48;95.54;99814.75;3053336;19;945;-51
2022/08/02 02:48:15;;;;;;;;;;;;;;;19.46;95.73;99807.81;3053568;19;1847;-53
2022/08/02 02:49:20;;;;;;;;;;;;;;;19.42;95.83;99815.44;3052795;19;1721;-53
2022/08/02 02:50:22;;;;;;;;;;;;;;;19.35;96.10;99811.69;3052985;19;1190;-51
2022/08/02 02:51:27;;;;;;;;;;;;;;;19.32;96.58;99814.75;3053248;19;1814;-52
2022/08/02 02:52:31;;;;;;;;;;;;;;;19.27;96.42;99812.53;3053467;19;1051;-50
2022/08/02 02:53:34;;;;;;;;;;;;;;;19.25;96.66;99808.31;3053204;19;947;-53
2022/08/02 02:54:58;;;;;;;;;;;;;;;19.20;96.71;99816.91;3053559;19;948;-52
2022/08/02 02:56:00;;;;;;;;;;;;;;;19.17;96.89;99832.66;3054160;19;1065;-53
2022/08/02 02:57:06;;;;;;;;;;;;;;;19.13;96.93;99820.47;3054430;19;1272;-54
2022/08/02 02:58:08;;;;;;;;;;;;;;;19.08;97.10;99822.84;3049442;19;1246;-52
2022/08/02 02:59:13;;;;;;;;;;;;;;;19.02;97.36;99822.47;3045149;19;1421;-51
2022/08/02 03:00:14;;;;;;;;;;;;;;;18.98;97.41;99826.50;3045698;19;914;-53
2022/08/02 03:01:32;;;;;;;;;;;;;;;18.95;97.40;99829.56;3044989;19;1095;-51
2022/08/02 03:02:56;;;;;;;;;;;;;;;18.91;97.51;99828.19;3047873;19;1045;-51
2022/08/02 03:04:03;;;;;;;;;;;;;;;18.91;97.62;99830.88;3047244;19;1000;-51
2022/08/02 03:05:08;;;;;;;;;;;;;;;18.90;97.52;99826.47;3048277;19;1077;-49
2022/08/02 03:06:11;;;;;;;;;;;;;;;18.92;97.44;99832.56;3052742;19;1178;-53
2022/08/02 03:07:19;;;;;;;;;;;;;;;18.93;97.45;99836.13;3052782;19;1014;-51
2022/08/02 03:08:21;;;;;;;;;;;;;;;18.92;97.35;99832.56;3053128;19;1836;-50
2022/08/02 03:09:26;;;;;;;;;;;;;;;18.93;97.46;99836.13;3053604;19;952;-51
2022/08/02 03:10:28;;;;;;;;;;;;;;;18.93;97.43;99845.09;3053674;19;1016;-54
2022/08/02 03:11:32;;;;;;;;;;;;;;;18.94;97.49;99838.69;3051690;19;1666;-53
2022/08/02 03:12:34;;;;;;;;;;;;;;;18.92;97.45;99832.56;3052969;19;1301;-53
2022/08/02 03:13:39;;;;;;;;;;;;;;;18.93;97.55;99847.78;3053291;19;1034;-53
2022/08/02 03:14:41;;;;;;;;;;;;;;;18.91;97.33;99841.69;3053604;19;1007;-51
2022/08/02 03:15:46;;;;;;;;;;;;;;;18.92;97.25;99845.25;3052415;19;1153;-53
2022/08/02 03:16:51;;;;;;;;;;;;;;;18.92;97.57;99832.56;3053098;19;902;-53
2022/08/02 03:17:55;;;;;;;;;;;;;;;18.91;97.44;99839.00;3052688;19;1066;-52
2022/08/02 03:18:57;;;;;;;;;;;;;;;18.94;97.56;99835.97;3054288;19;947;-52
2022/08/02 03:20:02;;;;;;;;;;;;;;;19.03;97.77;99837.69;3052994;19;1608;-53
2022/08/02 03:21:05;;;;;;;;;;;;;;;18.99;97.65;99835.47;3046839;19;1053;-51
2022/08/02 03:22:10;;;;;;;;;;;;;;;19.01;97.53;99830.75;3046086;19;989;-51
2022/08/02 03:23:12;;;;;;;;;;;;;;;19.04;97.55;99830.41;3045720;19;1033;-51
2022/08/02 03:24:16;;;;;;;;;;;;;;;19.08;97.18;99836.34;3047439;19;949;-53
2022/08/02 03:25:29;;;;;;;;;;;;;;;19.13;97.26;99825.88;3048674;19;1292;-53
2022/08/02 03:26:33;;;;;;;;;;;;;;;19.14;97.32;99823.00;3047832;19;1125;-53
2022/08/02 03:27:35;;;;;;;;;;;;;;;19.23;97.20;99837.38;3048111;19;1100;-50
2022/08/02 03:28:39;;;;;;;;;;;;;;;19.35;97.05;99831.50;3053141;19;1864;-50
2022/08/02 03:29:44;;;;;;;;;;;;;;;19.51;96.99;99825.28;3054089;19;912;-51
2022/08/02 03:30:46;;;;;;;;;;;;;;;19.72;96.80;99839.16;3053493;19;993;-50
2022/08/02 03:31:50;;;;;;;;;;;;;;;19.97;96.82;99826.47;3054123;19;944;-50
2022/08/02 03:32:52;;;;;;;;;;;;;;;20.26;96.25;99817.81;3054185;19;1151;-50
2022/08/02 03:33:57;;;;;;;;;;;;;;;20.58;95.10;99818.75;3053559;19;1384;-50
2022/08/02 03:34:58;;;;;;;;;;;;;;;20.89;94.97;99825.03;3053937;19;1093;-52
2022/08/02 03:36:04;;;;;;;;;;;;;;;21.13;94.76;99819.47;3053055;19;1075;-53
2022/08/02 03:37:09;;;;;;;;;;;;;;;21.40;94.82;99812.75;3052686;19;921;-51
2022/08/02 03:38:11;;;;;;;;;;;;;;;21.68;95.09;99810.31;3053211;19;967;-54
2022/08/02 03:39:16;;;;;;;;;;;;;;;21.91;96.01;99813.84;3052469;19;1142;-50
2022/08/02 03:40:17;;;;;;;;;;;;;;;22.04;97.00;99804.25;3052457;19;1340;-53
2022/08/02 03:41:22;;;;;;;;;;;;;;;21.93;97.98;99806.38;3052620;19;1658;-52
2022/08/02 03:42:24;;;;;;;;;;;;;;;21.72;98.14;99818.97;3053033;19;960;-52
2022/08/02 03:43:29;;;;;;;;;;;;;;;21.62;97.65;99808.31;3047412;19;1129;-53
2022/08/02 03:44:31;;;;;;;;;;;;;;;21.74;96.67;99816.88;3044253;19;1418;-53
2022/08/02 03:45:35;;;;;;;;;;;;;;;22.18;95.51;99812.44;3044196;19;952;-52
2022/08/02 03:46:38;;;;;;;;;;;;;;;22.79;95.38;99798.69;3046692;19;983;-52
2022/08/02 03:47:42;;;;;;;;;;;;;;;23.24;95.82;99795.66;3048533;19;1057;-50
2022/08/02 03:48:44;;;;;;;;;;;;;;;23.69;96.77;99789.00;3047391;19;1850;-53
2022/08/02 03:49:50;;;;;;;;;;;;;;;24.09;97.52;99788.50;3046908;19;1388;-51
2022/08/02 03:50:53;;;;;;;;;;;;;;;24.45;98.48;99778.28;3051058;19;1675;-52
2022/08/02 03:51:57;;;;;;;;;;;;;;;24.75;99.65;99785.13;3053517;19;1012;-51
2022/08/02 03:52:59;;;;;;;;;;;;;;;25.06;100.00;99783.81;3052987;19;957;-52
2022/08/02 03:54:04;;;;;;;;;;;;;;;25.34;100.00;99790.00;3052336;19;1355;-50
2022/08/02 03:55:06;;;;;;;;;;;;;;;25.63;100.00;99783.34;3052558;19;1071;-50
2022/08/02 03:56:11;;;;;;;;;;;;;;;25.91;100.00;99796.81;3052519;19;1781;-50
2022/08/02 03:57:13;;;;;;;;;;;;;;;26.22;100.00;99787.09;3052329;19;1107;-50
2022/08/02 03:58:21;;;;;;;;;;;;;;;26.39;100.00;99788.38;3052383;19;1211;-51
2022/08/02 03:59:23;;;;;;;;;;;;;;;26.54;100.00;99786.22;3052190;19;999;-50
2022/08/02 04:00:27;;;;;;;;;;;;;;;26.74;100.00;99791.63;3052718;19;1086;-51
2022/08/02 04:01:29;;;;;;;;;;;;;;;26.95;100.00;99796.84;3052860;19;1055;-50
2022/08/02 04:02:33;;;;;;;;;;;;;;;27.13;100.00;99801.63;3053337;19;1664;-52
2022/08/02 04:03:38;;;;;;;;;;;;;;;27.30;100.00;99805.50;3052580;19;1326;-50
2022/08/02 04:04:39;;;;;;;;;;;;;;;27.47;100.00;99814.91;3053065;19;920;-50
2022/08/02 04:05:44;;;;;;;;;;;;;;;27.63;100.00;99830.03;3049965;19;1049;-51
2022/08/02 04:07:05;;;;;;;;;;;;;;;27.81;100.00;99853.94;3044320;19;1032;-51
2022/08/02 04:08:10;;;;;;;;;;;;;;;27.98;100.00;99874.28;3043856;19;1168;-52
2022/08/02 04:09:35;;;;;;;;;;;;;;;28.18;100.00;99899.69;3047307;19;1826;-51
2022/08/02 04:11:57;;;;;;;;;;;;;;;28.63;100.00;99932.44;3047556;19;1819;-52
2022/08/02 04:12:59;;;;;;;;;;;;;;;28.81;100.00;99949.00;3049713;19;1003;-51
2022/08/02 04:14:05;;;;;;;;;;;;;;;28.99;100.00;99957.25;3051738;19;1034;-52
2022/08/02 04:15:07;;;;;;;;;;;;;;;29.12;100.00;99971.91;3050434;19;1277;-51
2022/08/02 04:16:20;;;;;;;;;;;;;;;29.11;100.00;99983.97;3052254;19;1567;-50
2022/08/02 04:17:22;;;;;;;;;;;;;;;29.11;100.00;100003.22;3051030;19;1397;-50
2022/08/02 04:18:27;;;;;;;;;;;;;;;29.06;100.00;99994.84;3053850;19;997;-51
2022/08/02 04:19:32;;;;;;;;;;;;;;;28.92;100.00;100003.19;3055674;19;941;-51
2022/08/02 04:20:36;;;;;;;;;;;;;;;28.90;100.00;100013.56;3055753;19;1626;-51
2022/08/02 04:21:39;;;;;;;;;;;;;;;29.07;100.00;100026.75;3055400;19;1186;-50
2022/08/02 04:22:59;;;;;;;;;;;;;;;29.30;100.00;100051.66;3054319;19;1003;-51
2022/08/02 04:24:02;;;;;;;;;;;;;;;29.54;100.00;100064.56;3053212;19;1948;-51
2022/08/02 04:25:08;;;;;;;;;;;;;;;29.70;100.00;100085.13;3055078;19;1028;-51
2022/08/02 04:26:18;;;;;;;;;;;;;;;29.94;100.00;100094.38;3054917;19;1452;-53
2022/08/02 04:27:30;;;;;;;;;;;;;;;30.14;100.00;100125.25;3053993;19;1237;-51
2022/08/02 04:28:52;;;;;;;;;;;;;;;30.20;100.00;100140.84;3047023;19;907;-52
2022/08/02 04:29:56;;;;;;;;;;;;;;;30.44;100.00;100142.63;3046794;19;1912;-52
2022/08/02 04:30:58;;;;;;;;;;;;;;;30.56;100.00;100158.41;3046496;19;989;-52
2022/08/02 04:32:03;;;;;;;;;;;;;;;30.65;100.00;100165.28;3048948;19;1396;-51
2022/08/02 04:33:05;;;;;;;;;;;;;;;30.79;100.00;100183.31;3048999;19;1369;-51
2022/08/02 04:34:09;;;;;;;;;;;;;;;30.94;100.00;100191.13;3049783;19;1220;-50
2022/08/02 04:35:16;;;;;;;;;;;;;;;30.97;100.00;100197.03;3050650;19;1026;-51
2022/08/02 04:36:23;;;;;;;;;;;;;;;30.71;100.00;100216.69;3054573;19;1208;-51
2022/08/02 04:37:32;;;;;;;;;;;;;;;30.60;100.00;100206.47;3053291;19;1070;-51
2022/08/02 04:38:37;;;;;;;;;;;;;;;30.43;100.00;100189.72;3054698;19;1059;-52
2022/08/02 04:39:39;;;;;;;;;;;;;;;30.34;100.00;100185.56;3054536;19;1245;-51
2022/08/02 04:40:54;;;;;;;;;;;;;;;30.49;100.00;100204.44;3054080;19;1445;-51
2022/08/02 04:41:56;;;;;;;;;;;;;;;30.33;100.00;100216.91;3056052;19;1809;-52
2022/08/02 04:43:01;;;;;;;;;;;;;;;30.05;100.00;100214.72;3055838;19;1092;-51
2022/08/02 04:44:03;;;;;;;;;;;;;;;29.80;100.00;100205.63;3055698;19;907;-51
2022/08/02 04:45:07;;;;;;;;;;;;;;;29.68;100.00;100197.28;3055964;19;1779;-50
2022/08/02 04:46:09;;;;;;;;;;;;;;;29.68;100.00;100186.28;3055391;19;916;-51
2022/08/02 04:47:14;;;;;;;;;;;;;;;29.64;100.00;100191.38;3054502;19;1028;-52
2022/08/02 04:48:16;;;;;;;;;;;;;;;29.47;100.00;100175.66;3054572;19;927;-52
2022/08/02 04:49:20;;;;;;;;;;;;;;;29.34;100.00;100187.63;3055264;19;961;-51
2022/08/02 04:50:22;;;;;;;;;;;;;;;29.34;100.00;100195.84;3053418;19;1849;-51
2022/08/02 04:51:26;;;;;;;;;;;;;;;29.43;100.00;100202.78;3047651;19;917;-51
2022/08/02 04:52:39;;;;;;;;;;;;;;;29.70;100.00;100201.50;3047428;19;938;-51
2022/08/02 04:53:49;;;;;;;;;;;;;;;30.12;100.00;100226.47;3047392;19;929;-50
2022/08/02 04:54:52;;;;;;;;;;;;;;;30.51;100.00;100235.38;3049723;19;1202;-51
2022/08/02 04:55:57;;;;;;;;;;;;;;;30.79;100.00;100260.47;3048789;19;1244;-51
2022/08/02 04:56:59;;;;;;;;;;;;;;;30.95;100.00;100281.84;3049916;19;1021;-52
2022/08/02 04:58:03;;;;;;;;;;;;;;;31.12;100.00;100287.59;3051801;19;1185;-52
2022/08/02 04:59:27;;;;;;;;;;;;;;;31.26;100.00;100299.28;3055416;19;1133;-51
2022/08/02 05:00:29;;;;;;;;;;;;;;;31.42;100.00;100301.38;3054202;19;1102;-53
2022/08/02 05:01:34;;;;;;;;;;;;;;;31.39;100.00;100312.91;3054509;19;1176;-51
2022/08/02 05:02:36;;;;;;;;;;;;;;;31.28;100.00;100327.44;3055190;19;1368;-51
2022/08/02 05:03:40;;;;;;;;;;;;;;;31.19;100.00;100326.09;3055830;19;1029;-51
2022/08/02 05:04:42;;;;;;;;;;;;;;;30.95;100.00;100334.22;3055474;19;1058;-50
2022/08/02 05:05:47;;;;;;;;;;;;;;;30.40;100.00;100323.19;3055604;19;1134;-51
2022/08/02 05:06:49;;;;;;;;;;;;;;;29.34;100.00;100311.31;3055346;19;1030;-51
2022/08/02 05:07:53;;;;;;;;;;;;;;;28.46;100.00;100266.25;3054894;19;1063;-53
2022/08/02 05:08:58;;;;;;;;;;;;;;;27.86;100.00;100218.88;3055387;19;1132;-51
2022/08/02 05:10:00;;;;;;;;;;;;;;;27.32;100.00;100199.88;3055352;19;1849;-52
2022/08/02 05:11:05;;;;;;;;;;;;;;;26.93;100.00;100174.13;3055488;19;1105;-52
2022/08/02 05:12:07;;;;;;;;;;;;;;;26.64;100.00;100142.47;3054910;19;1279;-52
2022/08/02 05:13:12;;;;;;;;;;;;;;;26.33;100.00;100133.94;3051785;19;1124;-49
2022/08/02 05:14:14;;;;;;;;;;;;;;;26.15;100.00;100112.59;3047190;19;1367;-51
2022/08/02 05:15:19;;;;;;;;;;;;;;;25.90;100.00;100100.50;3044507;19;1101;-51
2022/08/02 05:16:21;;;;;;;;;;;;;;;25.74;100.00;100090.75;3047540;19;1023;-51
2022/08/02 05:17:35;;;;;;;;;;;;;;;25.64;100.00;100068.41;3051283;19;1213;-50
2022/08/02 05:18:39;;;;;;;;;;;;;;;25.55;100.00;100058.66;3049874;19;1098;-51
2022/08/02 05:19:41;;;;;;;;;;;;;;;25.46;100.00;100050.63;3051074;19;1262;-52
2022/08/02 05:20:46;;;;;;;;;;;;;;;25.38;100.00;100050.78;3053369;19;1009;-51
2022/08/02 05:21:48;;;;;;;;;;;;;;;25.46;100.00;100047.06;3055242;19;1199;-52
2022/08/02 05:22:52;;;;;;;;;;;;;;;25.38;100.00;100042.56;3055553;19;939;-52
2022/08/02 05:23:54;;;;;;;;;;;;;;;25.34;100.00;100051.41;3055752;19;1273;-50
2022/08/02 05:24:58;;;;;;;;;;;;;;;25.28;100.00;100042.09;3054749;19;1108;-51
2022/08/02 05:26:03;;;;;;;;;;;;;;;25.21;100.00;100045.84;3055096;19;1076;-51
2022/08/02 05:27:05;;;;;;;;;;;;;;;25.13;100.00;100044.94;3054797;19;1070;-51
2022/08/02 05:28:24;;;;;;;;;;;;;;;25.07;100.00;100050.38;3055928;19;1169;-52
2022/08/02 05:29:26;;;;;;;;;;;;;;;24.93;100.00;100054.03;3055490;19;1161;-51
2022/08/02 05:30:30;;;;;;;;;;;;;;;24.87;100.00;100044.72;3053953;19;1861;-50
2022/08/02 05:31:32;;;;;;;;;;;;;;;24.84;100.00;100049.72;3054613;19;1765;-52
2022/08/02 05:32:37;;;;;;;;;;;;;;;24.73;100.00;100057.41;3054898;19;1475;-51
2022/08/02 05:33:42;;;;;;;;;;;;;;;24.71;100.00;100050.47;3054288;19;1356;-52
2022/08/02 05:34:44;;;;;;;;;;;;;;;24.58;100.00;100051.19;3054770;19;1330;-51
2022/08/02 05:35:48;;;;;;;;;;;;;;;24.54;100.00;100057.22;3050390;19;1083;-50
2022/08/02 05:36:50;;;;;;;;;;;;;;;24.53;100.00;100047.34;3046709;19;1599;-50
2022/08/02 05:37:55;;;;;;;;;;;;;;;24.53;100.00;100047.34;3047590;19;1168;-53
2022/08/02 05:38:57;;;;;;;;;;;;;;;24.42;100.00;100065.91;3048539;19;1659;-51
2022/08/02 05:40:09;;;;;;;;;;;;;;;24.40;100.00;100053.50;3049913;19;1349;-53
2022/08/02 05:41:16;;;;;;;;;;;;;;;24.43;100.00;100053.13;3050411;19;1282;-53
2022/08/02 05:42:18;;;;;;;;;;;;;;;24.43;100.00;100042.22;3050318;19;980;-50
2022/08/02 05:43:23;;;;;;;;;;;;;;;24.47;100.00;100043.53;3053644;19;1198;-52
2022/08/02 05:44:25;;;;;;;;;;;;;;;24.33;100.00;100064.38;3055045;19;1247;-53
2022/08/02 05:45:35;;;;;;;;;;;;;;;24.37;100.00;100059.38;3055095;19;1229;-53